createdAt,value
2019-02-25T00:01:25.072Z,44.10
2019-02-25T00:04:04.513Z,43.60
2019-02-25T00:06:43.740Z,43.20
2019-02-25T00:09:22.978Z,43.60
2019-02-25T00:12:02.219Z,43.50
2019-02-25T00:14:41.253Z,44.20
2019-02-25T00:17:20.334Z,44.40
2019-02-25T00:19:59.363Z,43.70
2019-02-25T00:22:38.504Z,43.40
2019-02-25T00:25:18.358Z,43.80
2019-02-25T00:27:57.527Z,43.30
2019-02-25T00:30:37.353Z,43.50
2019-02-25T00:33:16.358Z,44.30
2019-02-25T00:35:55.619Z,44.30
2019-02-25T00:38:35.399Z,43.50
2019-02-25T00:41:14.507Z,43.10
2019-02-25T00:43:53.675Z,42.90
2019-02-25T00:46:32.637Z,43.30
2019-02-25T00:49:11.808Z,43.60
2019-02-25T00:51:51.829Z,43.50
2019-02-25T00:54:30.792Z,43.90
2019-02-25T00:57:09.849Z,44.10
2019-02-25T00:59:48.793Z,44.10
2019-02-25T01:02:28.153Z,43.80
2019-02-25T01:05:07.527Z,43.00
2019-02-25T01:07:47.401Z,42.60
2019-02-25T01:10:26.419Z,42.60
2019-02-25T01:13:05.291Z,43.60
2019-02-25T01:15:44.423Z,43.50
2019-02-25T01:18:23.770Z,42.50
2019-02-25T01:21:03.527Z,42.70
2019-02-25T01:23:42.430Z,43.10
2019-02-25T01:26:25.545Z,43.30
2019-02-25T01:29:04.976Z,42.70
2019-02-25T01:31:44.132Z,41.80
2019-02-25T01:34:23.120Z,41.80
2019-02-25T01:37:02.283Z,42.50
2019-02-25T01:39:41.452Z,43.10
2019-02-25T01:42:20.495Z,43.70
2019-02-25T01:44:59.503Z,44.20
2019-02-25T01:47:38.749Z,42.90
2019-02-25T01:50:17.975Z,42.80
2019-02-25T01:52:57.967Z,42.30
2019-02-25T01:55:38.031Z,44.00
2019-02-25T01:58:17.815Z,43.40
2019-02-25T02:00:56.724Z,42.70
2019-02-25T02:03:35.739Z,42.20
2019-02-25T02:06:14.789Z,41.60
2019-02-25T02:08:53.916Z,42.30
2019-02-25T02:11:33.271Z,42.70
2019-02-25T02:14:13.214Z,44.10
2019-02-25T02:16:52.272Z,43.60
2019-02-25T02:19:31.339Z,42.80
2019-02-25T02:22:10.355Z,42.80
2019-02-25T02:24:49.623Z,42.50
2019-02-25T02:27:29.655Z,42.00
2019-02-25T02:30:08.719Z,42.40
2019-02-25T02:32:47.693Z,42.70
2019-02-25T02:35:26.628Z,46.60
2019-02-25T02:38:05.588Z,47.20
2019-02-25T02:40:44.618Z,49.20
2019-02-25T02:43:23.902Z,44.80
2019-02-25T02:46:02.951Z,43.30
2019-02-25T02:48:42.083Z,43.30
2019-02-25T02:51:20.954Z,44.60
2019-02-25T02:54:00.819Z,48.60
2019-02-25T02:56:39.763Z,49.20
2019-02-25T02:59:18.927Z,51.20
2019-02-25T03:01:58.494Z,51.40
2019-02-25T03:04:38.095Z,51.80
2019-02-25T03:07:17.351Z,51.10
2019-02-25T03:09:58.817Z,50.00
2019-02-25T03:12:38.232Z,49.20
2019-02-25T03:15:17.290Z,47.10
2019-02-25T03:17:56.331Z,47.50
2019-02-25T03:20:35.505Z,46.90
2019-02-25T03:23:14.782Z,45.20
2019-02-25T03:25:54.798Z,44.80
2019-02-25T03:28:34.645Z,44.50
2019-02-25T03:31:13.784Z,44.10
2019-02-25T03:33:52.747Z,45.30
2019-02-25T03:36:32.087Z,45.00
2019-02-25T03:39:12.028Z,44.30
2019-02-25T03:41:51.435Z,44.70
2019-02-25T03:44:31.104Z,46.10
2019-02-25T03:47:10.050Z,45.40
2019-02-25T03:49:49.106Z,45.80
2019-02-25T03:52:29.169Z,46.20
2019-02-25T03:55:09.000Z,46.10
2019-02-25T03:57:48.075Z,45.40
2019-02-25T04:00:27.191Z,44.60
2019-02-25T04:03:06.224Z,43.80
2019-02-25T04:05:45.219Z,43.30
2019-02-25T04:08:24.238Z,43.10
2019-02-25T04:11:03.302Z,44.50
2019-02-25T04:13:42.419Z,47.10
2019-02-25T04:16:21.811Z,48.30
2019-02-25T04:19:01.623Z,49.60
2019-02-25T04:21:40.925Z,50.80
2019-02-25T04:24:20.034Z,51.70
2019-02-25T04:26:59.127Z,52.60
2019-02-25T04:29:38.107Z,53.00
2019-02-25T04:32:17.092Z,53.70
2019-02-25T04:34:56.108Z,53.90
2019-02-25T04:37:35.373Z,54.00
2019-02-25T04:40:14.752Z,54.20
2019-02-25T04:42:53.805Z,54.00
2019-02-25T04:45:32.896Z,54.00
2019-02-25T04:48:11.925Z,54.40
2019-02-25T04:50:51.287Z,54.80
2019-02-25T04:53:31.182Z,55.10
2019-02-25T04:56:11.381Z,55.00
2019-02-25T04:58:51.208Z,54.20
2019-02-25T05:01:30.115Z,53.50
2019-02-25T05:04:09.187Z,52.00
2019-02-25T05:06:48.135Z,52.20
2019-02-25T05:09:27.258Z,52.20
2019-02-25T05:12:06.354Z,52.20
2019-02-25T05:14:45.572Z,51.00
2019-02-25T05:17:24.642Z,50.00
2019-02-25T05:20:03.630Z,49.20
2019-02-25T05:22:42.529Z,48.80
2019-02-25T05:25:22.462Z,48.80
2019-02-25T05:28:01.583Z,48.80
2019-02-25T05:30:40.662Z,48.80
2019-02-25T05:33:19.699Z,48.80
2019-02-25T05:35:58.817Z,49.70
2019-02-25T05:38:37.900Z,50.40
2019-02-25T05:41:17.018Z,50.80
2019-02-25T05:43:55.960Z,51.70
2019-02-25T05:46:34.956Z,52.00
2019-02-25T05:49:13.964Z,52.00
2019-02-25T05:51:53.024Z,51.10
2019-02-25T05:54:32.407Z,49.80
2019-02-25T05:57:12.464Z,49.50
2019-02-25T05:59:52.164Z,49.40
2019-02-25T06:02:31.367Z,49.70
2019-02-25T06:05:10.540Z,49.00
2019-02-25T06:07:49.488Z,48.10
2019-02-25T06:10:28.882Z,48.70
2019-02-25T06:13:08.587Z,50.50
2019-02-25T06:15:47.520Z,52.30
2019-02-25T06:18:26.598Z,52.40
2019-02-25T06:21:05.964Z,50.60
2019-02-25T06:23:45.718Z,49.30
2019-02-25T06:26:25.658Z,48.80
2019-02-25T06:29:04.904Z,49.40
2019-02-25T06:31:44.000Z,50.30
2019-02-25T06:34:23.127Z,50.10
2019-02-25T06:37:02.183Z,48.80
2019-02-25T06:39:41.283Z,47.60
2019-02-25T06:42:18.356Z,46.70
2019-02-25T06:45:24.132Z,45.00
2019-02-25T06:48:10.014Z,43.70
2019-02-25T06:50:55.906Z,42.60
2019-02-25T06:53:41.795Z,41.00
2019-02-25T06:56:27.690Z,39.40
2019-02-25T06:59:13.579Z,38.20
2019-02-25T07:01:59.476Z,37.80
2019-02-25T07:08:12.963Z,36.10
2019-02-25T07:11:18.746Z,34.00
2019-02-25T07:17:31.983Z,32.20
2019-02-25T07:20:37.756Z,32.90
2019-02-25T07:23:43.779Z,32.80
2019-02-25T07:26:49.543Z,32.40
2019-02-25T07:29:55.349Z,30.60
2019-02-25T07:33:01.167Z,30.00
2019-02-25T07:36:06.947Z,29.90
2019-02-25T07:39:12.743Z,28.60
2019-02-25T07:42:18.533Z,29.60
2019-02-25T07:45:26.219Z,28.70
2019-02-25T07:57:28.094Z,27.30
2019-02-25T08:00:33.872Z,28.10
2019-02-25T08:09:27.817Z,26.60
2019-02-25T08:12:33.582Z,27.00
2019-02-25T08:15:39.366Z,26.80
2019-02-25T08:18:45.371Z,26.30
2019-02-25T08:24:58.668Z,25.50
2019-02-25T08:28:04.654Z,25.40
2019-02-25T08:31:10.446Z,25.50
2019-02-25T08:37:43.565Z,25.70
2019-02-25T08:40:51.462Z,26.00
2019-02-25T08:46:25.731Z,27.00
2019-02-25T08:49:24.876Z,27.60
2019-02-25T08:52:04.070Z,28.30
2019-02-25T08:54:43.894Z,29.00
2019-02-25T08:57:23.030Z,30.10
2019-02-25T09:00:02.001Z,31.40
2019-02-25T09:02:41.049Z,32.20
2019-02-25T09:05:19.975Z,33.00
2019-02-25T09:07:59.229Z,33.20
2019-02-25T09:10:38.733Z,33.70
2019-02-25T09:13:17.676Z,34.60
2019-02-25T09:15:56.560Z,36.10
2019-02-25T09:18:35.541Z,36.60
2019-02-25T09:21:14.584Z,37.20
2019-02-25T09:23:53.625Z,37.30
2019-02-25T09:26:32.955Z,38.10
2019-02-25T09:29:11.955Z,38.10
2019-02-25T09:31:51.062Z,38.10
2019-02-25T09:34:30.281Z,39.40
2019-02-25T09:37:09.498Z,38.80
2019-02-25T09:39:49.335Z,39.00
2019-02-25T09:42:28.350Z,38.90
2019-02-25T09:45:07.478Z,39.20
2019-02-25T09:47:47.509Z,39.10
2019-02-25T09:50:27.348Z,39.30
2019-02-25T09:53:07.389Z,39.40
2019-02-25T09:55:47.710Z,39.30
2019-02-25T09:58:27.437Z,37.70
2019-02-25T10:01:06.490Z,36.60
2019-02-25T10:03:45.599Z,36.70
2019-02-25T10:06:24.864Z,37.00
2019-02-25T10:09:04.182Z,37.20
2019-02-25T10:11:43.753Z,35.70
2019-02-25T10:14:22.699Z,35.40
2019-02-25T10:17:01.671Z,35.80
2019-02-25T10:19:40.694Z,35.60
2019-02-25T10:22:20.543Z,33.10
2019-02-25T10:24:59.755Z,33.10
2019-02-25T10:27:38.810Z,32.80
2019-02-25T10:30:18.140Z,32.20
2019-02-25T10:32:57.844Z,30.80
2019-02-25T10:35:36.789Z,31.00
2019-02-25T10:38:15.803Z,30.20
2019-02-25T10:40:55.048Z,30.30
2019-02-25T10:43:36.134Z,29.60
2019-02-25T10:46:16.033Z,27.20
2019-02-25T10:48:57.403Z,27.60
2019-02-25T10:51:38.883Z,27.30
2019-02-25T10:54:19.603Z,26.70
2019-02-25T10:56:59.150Z,25.50
2019-02-25T10:59:39.523Z,25.10
2019-02-25T11:02:19.526Z,25.60
2019-02-25T11:04:59.342Z,25.70
2019-02-25T11:07:39.841Z,26.10
2019-02-25T11:10:40.260Z,26.20
2019-02-25T11:13:19.626Z,26.70
2019-02-25T11:15:58.573Z,27.20
2019-02-25T11:18:37.787Z,27.10
2019-02-25T11:21:16.815Z,27.00
2019-02-25T11:23:56.091Z,26.80
2019-02-25T11:26:35.420Z,27.50
2019-02-25T11:29:16.337Z,27.40
2019-02-25T11:31:56.287Z,26.80
2019-02-25T11:34:37.791Z,26.40
2019-02-25T11:37:19.771Z,26.50
2019-02-25T11:40:04.174Z,26.60
2019-02-25T11:42:42.711Z,27.00
2019-02-25T11:45:21.952Z,27.00
2019-02-25T11:48:01.782Z,26.90
2019-02-25T11:50:41.655Z,26.90
2019-02-25T11:53:20.833Z,26.80
2019-02-25T11:56:00.055Z,27.00
2019-02-25T11:58:39.760Z,27.20
2019-02-25T12:01:18.730Z,28.10
2019-02-25T12:03:57.947Z,27.00
2019-02-25T12:06:37.856Z,26.90
2019-02-25T12:09:17.912Z,27.00
2019-02-25T12:11:57.774Z,26.70
2019-02-25T12:14:36.947Z,26.80
2019-02-25T12:17:16.069Z,26.70
2019-02-25T12:19:55.013Z,27.00
2019-02-25T12:22:34.003Z,27.50
2019-02-25T12:25:13.111Z,27.00
2019-02-25T12:27:52.098Z,27.50
2019-02-25T12:30:31.155Z,27.70
2019-02-25T12:33:10.171Z,27.30
2019-02-25T12:35:49.397Z,27.40
2019-02-25T12:38:29.491Z,27.50
2019-02-25T12:41:09.306Z,27.90
2019-02-25T12:43:48.299Z,28.10
2019-02-25T12:46:27.573Z,28.20
2019-02-25T12:49:06.583Z,28.40
2019-02-25T12:51:45.604Z,28.20
2019-02-25T12:54:24.614Z,28.20
2019-02-25T12:57:03.636Z,28.40
2019-02-25T12:59:42.614Z,28.20
2019-02-25T13:02:22.397Z,28.00
2019-02-25T13:05:01.432Z,27.70
2019-02-25T13:07:41.308Z,27.70
2019-02-25T13:10:20.272Z,28.10
2019-02-25T13:12:59.271Z,28.20
2019-02-25T13:15:38.530Z,27.90
2019-02-25T13:18:18.352Z,27.90
2019-02-25T13:20:57.807Z,28.10
2019-02-25T13:23:37.787Z,28.10
2019-02-25T13:26:17.580Z,27.90
2019-02-25T13:28:56.664Z,27.80
2019-02-25T13:31:35.625Z,28.00
2019-02-25T13:34:15.496Z,28.10
2019-02-25T13:36:54.486Z,28.30
2019-02-25T13:39:34.622Z,28.10
2019-02-25T13:42:13.616Z,27.90
2019-02-25T13:44:52.731Z,27.60
2019-02-25T13:47:31.750Z,27.60
2019-02-25T13:50:10.962Z,28.20
2019-02-25T13:52:50.941Z,28.50
2019-02-25T13:55:30.915Z,28.40
2019-02-25T13:58:10.763Z,28.10
2019-02-25T14:00:50.683Z,28.30
2019-02-25T14:03:30.521Z,28.60
2019-02-25T14:06:10.476Z,29.00
2019-02-25T14:08:49.736Z,29.10
2019-02-25T14:11:29.510Z,29.40
2019-02-25T14:14:09.360Z,29.40
2019-02-25T14:16:48.646Z,29.80
2019-02-25T14:19:27.844Z,29.90
2019-02-25T14:22:07.207Z,29.60
2019-02-25T14:24:46.930Z,29.60
2019-02-25T14:27:27.135Z,30.00
2019-02-25T14:30:07.502Z,30.00
2019-02-25T14:32:48.148Z,30.20
2019-02-25T14:35:28.481Z,30.30
2019-02-25T14:38:10.867Z,30.20
2019-02-25T14:40:51.349Z,30.20
2019-02-25T14:43:30.760Z,29.80
2019-02-25T14:46:12.086Z,30.00
2019-02-25T14:48:52.007Z,30.00
2019-02-25T14:51:31.796Z,30.40
2019-02-25T14:54:11.279Z,30.40
2019-02-25T14:56:52.730Z,30.40
2019-02-25T14:59:32.064Z,30.80
2019-02-25T15:02:11.340Z,30.90
2019-02-25T15:04:51.518Z,31.10
2019-02-25T15:07:32.433Z,31.10
2019-02-25T15:10:11.543Z,31.20
2019-02-25T15:12:53.770Z,31.00
2019-02-25T15:15:34.729Z,31.20
2019-02-25T15:18:13.674Z,31.20
2019-02-25T15:20:53.516Z,31.20
2019-02-25T15:23:32.842Z,31.40
2019-02-25T15:26:11.821Z,31.30
2019-02-25T15:28:53.697Z,31.40
2019-02-25T15:31:37.223Z,31.70
2019-02-25T15:34:17.233Z,31.60
2019-02-25T15:36:58.608Z,31.90
2019-02-25T15:39:41.730Z,31.90
2019-02-25T15:42:19.480Z,31.80
2019-02-25T15:44:59.389Z,32.00
2019-02-25T15:47:38.538Z,32.10
2019-02-25T15:50:17.511Z,32.50
2019-02-25T15:52:58.620Z,32.70
2019-02-25T15:55:37.620Z,32.90
2019-02-25T15:58:16.554Z,32.90
2019-02-25T16:00:55.608Z,33.30
2019-02-25T16:03:36.646Z,33.40
2019-02-25T16:06:15.851Z,33.50
2019-02-25T16:08:56.414Z,34.10
2019-02-25T16:11:37.209Z,33.80
2019-02-25T16:14:19.148Z,34.20
2019-02-25T16:16:59.111Z,34.30
2019-02-25T16:19:45.468Z,34.50
2019-02-25T16:22:20.070Z,35.00
2019-02-25T16:25:00.631Z,35.00
2019-02-25T16:27:41.680Z,35.30
2019-02-25T16:30:23.644Z,35.30
2019-02-25T16:33:05.008Z,35.80
2019-02-25T16:35:45.996Z,35.80
2019-02-25T16:38:27.266Z,36.40
2019-02-25T16:41:10.144Z,36.40
2019-02-25T16:43:49.487Z,36.40
2019-02-25T16:46:29.367Z,36.20
2019-02-25T16:49:09.409Z,36.80
2019-02-25T16:51:51.046Z,37.30
2019-02-25T16:54:30.460Z,38.30
2019-02-25T16:57:10.388Z,37.90
2019-02-25T16:59:49.480Z,38.20
2019-02-25T17:02:30.102Z,38.70
2019-02-25T17:05:10.980Z,39.00
2019-02-25T17:07:50.598Z,39.30
2019-02-25T17:10:31.522Z,39.70
2019-02-25T17:13:12.517Z,40.20
2019-02-25T17:15:51.480Z,40.40
2019-02-25T17:18:31.234Z,40.40
2019-02-25T17:21:12.382Z,39.90
2019-02-25T17:23:53.921Z,40.00
2019-02-25T17:26:32.399Z,39.80
2019-02-25T17:29:11.316Z,39.60
2019-02-25T17:31:50.624Z,40.30
2019-02-25T17:34:30.371Z,40.60
2019-02-25T17:37:12.492Z,40.80
2019-02-25T17:39:54.125Z,41.20
2019-02-25T17:42:33.572Z,41.60
2019-02-25T17:45:12.975Z,41.90
2019-02-25T17:47:58.212Z,42.80
2019-02-25T17:50:36.051Z,43.80
2019-02-25T17:53:15.171Z,45.00
2019-02-25T17:55:55.520Z,45.10
2019-02-25T17:58:36.393Z,45.20
2019-02-25T18:01:19.194Z,45.80
2019-02-25T18:03:59.890Z,46.30
2019-02-25T18:06:41.445Z,47.70
2019-02-25T18:09:22.692Z,49.30
2019-02-25T18:12:03.899Z,48.70
2019-02-25T18:14:45.303Z,50.00
2019-02-25T18:17:24.698Z,49.80
2019-02-25T18:20:03.620Z,51.00
2019-02-25T18:22:42.615Z,51.40
2019-02-25T18:25:21.675Z,51.90
2019-02-25T18:28:01.892Z,52.30
2019-02-25T18:30:43.796Z,53.20
2019-02-25T18:33:25.229Z,53.70
2019-02-25T18:36:06.606Z,54.80
2019-02-25T18:38:46.438Z,55.40
2019-02-25T18:41:28.113Z,55.30
2019-02-25T18:44:09.736Z,55.20
2019-02-25T18:46:52.327Z,55.20
2019-02-25T18:49:33.088Z,55.40
2019-02-25T18:52:14.418Z,56.30
2019-02-25T18:54:54.157Z,57.30
2019-02-25T18:57:33.265Z,57.60
2019-02-25T19:00:14.287Z,57.60
2019-02-25T19:02:56.070Z,57.50
2019-02-25T19:05:35.506Z,58.00
2019-02-25T19:08:19.312Z,58.50
2019-02-25T19:10:57.556Z,59.00
2019-02-25T19:13:37.044Z,59.40
2019-02-25T19:16:17.579Z,59.80
2019-02-25T19:18:57.348Z,60.60
2019-02-25T19:21:37.537Z,61.10
2019-02-25T19:24:17.044Z,61.40
2019-02-25T19:26:57.519Z,62.00
2019-02-25T19:29:37.599Z,62.20
2019-02-25T19:32:17.694Z,63.00
2019-02-25T19:34:58.388Z,63.40
2019-02-25T19:37:40.116Z,64.00
2019-02-25T19:40:20.012Z,62.70
2019-02-25T19:43:03.679Z,62.20
2019-02-25T19:45:43.273Z,61.60
2019-02-25T19:48:28.340Z,62.00
2019-02-25T19:51:04.429Z,61.90
2019-02-25T19:56:51.458Z,62.90
2019-02-25T19:59:31.166Z,62.60
2019-02-25T20:02:10.533Z,62.40
2019-02-25T20:04:51.902Z,63.60
2019-02-25T20:07:33.234Z,64.00
2019-02-25T20:10:13.694Z,64.10
2019-02-25T20:12:53.646Z,64.30
2019-02-25T20:15:37.590Z,64.70
2019-02-25T20:18:15.999Z,64.70
2019-02-25T20:20:57.615Z,64.80
2019-02-25T20:23:36.870Z,67.00
2019-02-25T20:26:17.746Z,67.10
2019-02-25T20:28:57.894Z,67.60
2019-02-25T20:31:36.828Z,67.80
2019-02-25T20:34:18.480Z,67.70
2019-02-25T20:36:59.392Z,67.10
2019-02-25T20:39:40.475Z,67.20
2019-02-25T20:42:22.279Z,66.80
2019-02-25T20:45:02.673Z,64.60
2019-02-25T20:47:44.469Z,64.10
2019-02-25T20:50:23.654Z,63.80
2019-02-25T20:53:05.706Z,63.00
2019-02-25T20:55:43.794Z,63.70
2019-02-25T20:58:23.706Z,64.90
2019-02-25T21:01:05.230Z,65.50
2019-02-25T21:03:45.852Z,65.90
2019-02-25T21:06:25.067Z,67.10
2019-02-25T21:09:06.676Z,67.00
2019-02-25T21:11:46.882Z,66.70
2019-02-25T21:14:29.554Z,66.30
2019-02-25T21:17:07.244Z,65.90
2019-02-25T21:19:47.146Z,66.00
2019-02-25T21:22:27.429Z,67.00
2019-02-25T21:25:07.399Z,67.60
2019-02-25T21:27:47.093Z,68.70
2019-02-25T21:33:49.827Z,69.60
2019-02-25T21:36:27.704Z,70.30
2019-02-25T21:39:10.384Z,70.30
2019-02-25T21:41:51.199Z,70.80
2019-02-25T21:44:31.524Z,70.90
2019-02-25T21:47:11.242Z,71.00
2019-02-25T21:49:52.469Z,72.00
2019-02-25T21:52:32.891Z,73.00
2019-02-25T21:55:12.233Z,72.90
2019-02-25T21:57:53.100Z,72.90
2019-02-25T22:00:35.145Z,74.40
2019-02-25T22:03:15.798Z,75.50
2019-02-25T22:05:56.192Z,75.70
2019-02-25T22:08:24.380Z,76.90
2019-02-25T22:10:50.759Z,77.60
2019-02-25T22:13:18.242Z,77.90
2019-02-25T22:15:45.285Z,78.20
2019-02-25T22:18:12.350Z,78.80
2019-02-25T22:20:40.337Z,79.10
2019-02-25T22:23:08.012Z,79.80
2019-02-25T22:25:34.185Z,80.60
2019-02-25T22:28:01.665Z,81.00
2019-02-25T22:30:28.629Z,82.30
2019-02-25T22:32:54.987Z,82.20
2019-02-25T22:35:20.982Z,82.90
2019-02-25T22:37:49.659Z,84.00
2019-02-25T22:40:17.209Z,84.20
2019-02-25T22:42:43.875Z,85.00
2019-02-25T22:45:18.936Z,86.10
2019-02-25T22:47:45.229Z,86.90
2019-02-25T22:50:13.314Z,88.00
2019-02-25T22:52:40.410Z,87.70
2019-02-25T22:55:10.103Z,87.50
2019-02-25T22:57:36.687Z,87.10
2019-02-25T23:00:12.792Z,85.50
2019-02-25T23:02:41.013Z,85.20
2019-02-25T23:05:08.217Z,85.90
2019-02-25T23:07:38.835Z,87.20
2019-02-25T23:10:10.244Z,87.90
2019-02-25T23:12:35.342Z,89.30
2019-02-25T23:15:06.124Z,90.10
2019-02-25T23:17:35.065Z,91.10
2019-02-25T23:20:02.606Z,91.60
2019-02-25T23:22:30.109Z,92.00
2019-02-25T23:24:56.277Z,92.20
2019-02-25T23:27:22.286Z,92.90
2019-02-25T23:29:48.439Z,93.70
2019-02-25T23:32:15.379Z,94.20
2019-02-25T23:34:44.899Z,94.30
2019-02-25T23:37:12.871Z,94.60
2019-02-25T23:39:40.437Z,95.00
2019-02-25T23:42:07.294Z,95.60
2019-02-25T23:44:34.514Z,93.80
2019-02-25T23:47:02.102Z,92.10
2019-02-25T23:49:28.467Z,91.20
2019-02-25T23:51:54.482Z,90.60
2019-02-25T23:54:21.371Z,90.50
2019-02-25T23:56:50.244Z,90.40
2019-02-25T23:59:17.109Z,90.20
